createdAt,value
2019-05-18T00:01:32.091Z,65.50
2019-05-18T00:04:07.535Z,136.50
2019-05-18T00:06:38.929Z,125.10
2019-05-18T00:09:10.293Z,95.97
2019-05-18T00:11:41.661Z,122.00
2019-05-18T00:14:13.117Z,86.23
2019-05-18T00:16:45.107Z,89.73
2019-05-18T00:19:16.651Z,96.93
2019-05-18T00:21:49.042Z,102.17
2019-05-18T00:24:24.376Z,96.93
2019-05-18T00:26:55.926Z,100.83
2019-05-18T00:29:27.341Z,97.17
2019-05-18T00:31:58.900Z,106.23
2019-05-18T00:34:31.068Z,117.93
2019-05-18T00:37:02.543Z,89.03
2019-05-18T00:39:34.501Z,87.73
2019-05-18T00:42:06.345Z,83.37
2019-05-18T00:44:40.675Z,83.23
2019-05-18T00:47:12.156Z,157.70
2019-05-18T00:49:43.561Z,123.57
2019-05-18T00:52:15.141Z,98.47
2019-05-18T00:54:46.543Z,105.07
2019-05-18T00:57:18.389Z,85.77
2019-05-18T00:59:49.895Z,125.00
2019-05-18T01:02:21.493Z,113.03
2019-05-18T01:05:00.270Z,134.90
2019-05-18T01:07:31.857Z,268.27
2019-05-18T01:10:03.432Z,231.23
2019-05-18T01:12:35.254Z,240.30
2019-05-18T01:15:10.290Z,347.57
2019-05-18T01:17:56.182Z,157.97
2019-05-18T01:20:18.489Z,209.27
2019-05-18T01:22:50.129Z,158.23
2019-05-18T01:25:22.038Z,218.50
2019-05-18T01:27:53.416Z,205.90
2019-05-18T01:30:27.489Z,153.10
2019-05-18T01:32:59.023Z,179.00
2019-05-18T01:35:30.434Z,260.73
2019-05-18T01:38:02.029Z,123.23
2019-05-18T01:40:33.403Z,124.33
2019-05-18T01:43:05.311Z,158.87
2019-05-18T01:45:36.533Z,96.77
2019-05-18T01:48:13.621Z,148.93
2019-05-18T01:50:42.176Z,145.77
2019-05-18T01:53:13.550Z,140.30
2019-05-18T01:55:45.151Z,163.10
2019-05-18T01:58:16.671Z,114.27
2019-05-18T02:00:49.479Z,89.93
2019-05-18T02:03:21.611Z,78.00
2019-05-18T02:05:53.933Z,115.73
2019-05-18T02:08:25.256Z,239.57
2019-05-18T02:10:59.495Z,141.90
2019-05-18T02:13:30.741Z,134.53
2019-05-18T02:16:03.835Z,117.03
2019-05-18T02:18:35.600Z,99.73
2019-05-18T02:21:07.457Z,136.53
2019-05-18T02:23:38.803Z,119.37
2019-05-18T02:26:10.181Z,110.57
2019-05-18T02:28:41.565Z,178.67
2019-05-18T02:31:13.742Z,90.43
2019-05-18T02:33:45.287Z,127.17
2019-05-18T02:36:17.986Z,110.17
2019-05-18T02:38:49.458Z,106.37
2019-05-18T02:41:20.763Z,244.90
2019-05-18T02:43:52.316Z,188.00
2019-05-18T02:46:23.665Z,262.87
2019-05-18T02:48:55.219Z,215.93
2019-05-18T02:51:28.114Z,202.13
2019-05-18T02:53:59.425Z,102.23
2019-05-18T02:56:30.872Z,101.43
2019-05-18T02:59:02.228Z,107.83
2019-05-18T03:01:33.821Z,217.33
2019-05-18T03:04:05.474Z,125.77
2019-05-18T03:06:36.821Z,245.60
2019-05-18T03:09:08.715Z,175.17
2019-05-18T03:11:40.001Z,136.50
2019-05-18T03:14:11.458Z,122.37
2019-05-18T03:16:44.025Z,159.93
2019-05-18T03:19:15.500Z,192.83
2019-05-18T03:21:46.810Z,290.17
2019-05-18T03:24:18.350Z,387.70
2019-05-18T03:26:50.454Z,249.57
2019-05-18T03:29:21.900Z,231.57
2019-05-18T03:31:53.272Z,212.47
2019-05-18T03:34:24.895Z,385.30
2019-05-18T03:36:56.475Z,167.73
2019-05-18T03:39:28.112Z,202.23
2019-05-18T03:41:59.535Z,175.93
2019-05-18T03:44:31.109Z,137.87
2019-05-18T03:47:02.876Z,160.20
2019-05-18T03:49:34.647Z,153.53
2019-05-18T03:52:06.532Z,202.77
2019-05-18T03:54:37.969Z,379.10
2019-05-18T03:57:09.544Z,198.00
2019-05-18T03:59:40.881Z,123.20
2019-05-18T04:02:12.291Z,229.20
2019-05-18T04:04:43.938Z,103.43
2019-05-18T04:07:15.388Z,85.70
2019-05-18T04:09:47.478Z,129.30
2019-05-18T04:12:19.679Z,148.10
2019-05-18T04:14:55.431Z,100.43
2019-05-18T04:17:26.754Z,147.23
2019-05-18T04:19:58.119Z,87.60
2019-05-18T04:22:29.435Z,172.47
2019-05-18T04:25:02.002Z,169.33
2019-05-18T04:27:34.271Z,69.70
2019-05-18T04:30:08.253Z,67.97
2019-05-18T04:32:39.571Z,164.73
2019-05-18T04:35:11.224Z,152.60
2019-05-18T04:37:42.759Z,55.03
2019-05-18T04:40:15.006Z,35.70
2019-05-18T04:42:46.473Z,51.37
2019-05-18T04:45:19.565Z,45.63
2019-05-18T04:47:51.013Z,207.70
2019-05-18T04:50:22.399Z,277.20
2019-05-18T04:52:53.907Z,271.57
2019-05-18T04:55:25.240Z,130.07
2019-05-18T04:57:56.647Z,157.20
2019-05-18T05:00:28.064Z,150.40
2019-05-18T05:02:59.556Z,164.67
2019-05-18T05:05:31.090Z,94.23
2019-05-18T05:08:02.588Z,101.83
2019-05-18T05:10:34.401Z,90.40
2019-05-18T05:13:06.213Z,153.77
2019-05-18T05:15:37.578Z,69.10
2019-05-18T05:18:10.380Z,56.90
2019-05-18T05:20:41.768Z,62.23
2019-05-18T05:23:13.218Z,48.43
2019-05-18T05:25:44.733Z,41.03
2019-05-18T05:28:16.235Z,43.43
2019-05-18T05:30:47.699Z,22.07
2019-05-18T05:33:19.169Z,22.60
2019-05-18T05:35:50.665Z,32.07
2019-05-18T05:38:22.181Z,27.13
2019-05-18T05:40:53.599Z,23.17
2019-05-18T05:43:25.107Z,24.90
2019-05-18T05:45:56.498Z,27.07
2019-05-18T05:48:27.791Z,21.47
2019-05-18T05:50:59.264Z,16.47
2019-05-18T05:53:30.776Z,20.30
2019-05-18T05:56:02.225Z,17.37
2019-05-18T05:58:34.352Z,21.12
2019-05-18T06:01:06.336Z,54.80
2019-05-18T06:03:37.676Z,42.70
2019-05-18T06:06:10.557Z,36.43
2019-05-18T06:08:42.625Z,44.60
2019-05-18T06:11:13.897Z,40.50
2019-05-18T06:13:47.440Z,44.13
2019-05-18T06:16:21.271Z,42.65
2019-05-18T06:18:52.672Z,41.83
2019-05-18T06:21:24.588Z,59.95
2019-05-18T06:23:56.041Z,55.78
2019-05-18T06:26:27.432Z,59.23
2019-05-18T06:28:58.923Z,89.42
2019-05-18T06:31:30.244Z,117.10
2019-05-18T06:34:01.584Z,60.78
2019-05-18T06:36:32.841Z,74.12
2019-05-18T06:39:06.330Z,63.92
2019-05-18T06:41:37.760Z,68.10
2019-05-18T06:44:09.405Z,53.98
2019-05-18T06:46:40.841Z,59.33
2019-05-18T06:49:12.404Z,47.33
2019-05-18T06:51:43.855Z,44.08
2019-05-18T06:54:15.460Z,43.75
2019-05-18T06:56:51.415Z,52.90
2019-05-18T06:59:24.534Z,46.08
2019-05-18T07:01:55.964Z,36.95
2019-05-18T07:04:27.457Z,36.80
2019-05-18T07:06:58.843Z,31.42
2019-05-18T07:09:30.202Z,31.10
2019-05-18T07:12:01.548Z,35.48
2019-05-18T07:14:32.990Z,32.00
2019-05-18T07:17:05.049Z,44.75
2019-05-18T07:19:36.388Z,77.87
2019-05-18T07:22:08.442Z,39.53
2019-05-18T07:24:39.795Z,48.58
2019-05-18T07:27:11.302Z,35.70
2019-05-18T07:29:42.859Z,41.15
2019-05-18T07:32:14.531Z,42.17
2019-05-18T07:34:46.734Z,41.77
2019-05-18T07:37:18.280Z,41.85
2019-05-18T07:39:49.569Z,55.75
2019-05-18T07:42:21.480Z,38.50
2019-05-18T07:44:52.942Z,42.93
2019-05-18T07:47:24.265Z,39.63
2019-05-18T07:49:55.605Z,35.63
2019-05-18T07:52:26.954Z,38.17
2019-05-18T07:54:59.276Z,38.90
2019-05-18T07:57:30.553Z,30.50
2019-05-18T08:00:01.946Z,34.58
2019-05-18T08:02:33.309Z,24.05
2019-05-18T08:05:05.519Z,19.77
2019-05-18T08:07:37.092Z,24.85
2019-05-18T08:10:08.991Z,16.70
2019-05-18T08:12:40.489Z,20.25
2019-05-18T08:15:12.088Z,16.45
2019-05-18T08:17:43.550Z,14.78
2019-05-18T08:20:16.355Z,16.12
2019-05-18T08:22:47.813Z,18.80
2019-05-18T08:25:19.361Z,17.52
2019-05-18T08:27:53.441Z,12.73
2019-05-18T08:30:27.600Z,10.58
2019-05-18T08:32:59.048Z,15.90
2019-05-18T08:35:30.498Z,20.10
2019-05-18T08:38:01.963Z,18.40
2019-05-18T08:40:33.598Z,15.48
2019-05-18T08:43:05.428Z,14.98
2019-05-18T08:45:38.722Z,16.52
2019-05-18T08:48:10.157Z,17.98
2019-05-18T08:50:43.183Z,25.08
2019-05-18T08:53:14.869Z,29.40
2019-05-18T08:55:46.300Z,22.52
2019-05-18T08:58:17.927Z,30.12
2019-05-18T09:00:49.310Z,22.80
2019-05-18T09:03:21.663Z,24.80
2019-05-18T09:05:53.122Z,21.15
2019-05-18T09:08:24.459Z,20.57
2019-05-18T09:10:55.792Z,21.45
2019-05-18T09:13:27.298Z,18.67
2019-05-18T09:15:58.614Z,21.95
2019-05-18T09:18:31.197Z,19.62
2019-05-18T09:21:02.630Z,18.57
2019-05-18T09:23:34.342Z,21.02
2019-05-18T09:26:06.195Z,25.85
2019-05-18T09:28:38.005Z,27.10
2019-05-18T09:31:09.384Z,21.52
2019-05-18T09:33:40.854Z,59.75
2019-05-18T09:36:12.154Z,22.10
2019-05-18T09:38:43.473Z,25.50
2019-05-18T09:41:14.984Z,33.33
2019-05-18T09:43:46.275Z,17.75
2019-05-18T09:46:17.718Z,13.00
2019-05-18T09:48:51.848Z,11.78
2019-05-18T09:51:23.221Z,13.72
2019-05-18T09:53:54.572Z,10.58
2019-05-18T09:56:29.068Z,10.78
2019-05-18T09:59:00.573Z,13.62
2019-05-18T10:01:31.851Z,12.70
2019-05-18T10:04:03.988Z,12.87
2019-05-18T10:06:35.791Z,14.63
2019-05-18T10:09:09.077Z,13.80
2019-05-18T10:11:43.283Z,16.65
2019-05-18T10:14:15.019Z,15.80
2019-05-18T10:16:48.380Z,13.45
2019-05-18T10:19:19.945Z,16.62
2019-05-18T10:21:51.363Z,16.42
2019-05-18T10:24:24.080Z,14.93
2019-05-18T10:26:55.432Z,17.70
2019-05-18T10:29:26.905Z,21.27
2019-05-18T10:31:58.486Z,18.20
2019-05-18T10:34:30.018Z,19.87
2019-05-18T10:37:01.441Z,18.23
2019-05-18T10:39:33.054Z,18.65
2019-05-18T10:42:06.342Z,20.35
2019-05-18T10:44:37.839Z,14.38
2019-05-18T10:47:09.357Z,15.80
2019-05-18T10:49:40.761Z,18.57
2019-05-18T10:52:12.089Z,15.05
2019-05-18T10:54:43.542Z,16.77
2019-05-18T10:57:15.151Z,17.35
2019-05-18T10:59:46.534Z,26.93
2019-05-18T11:02:17.966Z,25.65
2019-05-18T11:04:49.361Z,23.70
2019-05-18T11:07:20.851Z,19.13
2019-05-18T11:09:52.191Z,12.78
2019-05-18T11:12:24.980Z,10.90
2019-05-18T11:14:56.481Z,10.50
2019-05-18T11:17:28.940Z,13.33
2019-05-18T11:20:00.393Z,15.23
2019-05-18T11:22:32.212Z,19.20
2019-05-18T11:25:03.649Z,24.83
2019-05-18T11:27:35.837Z,17.27
2019-05-18T11:30:09.132Z,22.65
2019-05-18T11:32:41.464Z,28.60
2019-05-18T11:35:14.043Z,29.47
2019-05-18T11:37:46.114Z,30.20
2019-05-18T11:40:20.567Z,46.58
2019-05-18T11:42:52.098Z,30.57
2019-05-18T11:45:24.056Z,67.27
2019-05-18T11:47:55.411Z,35.90
2019-05-18T11:50:26.973Z,25.20
2019-05-18T11:53:00.594Z,31.43
2019-05-18T11:55:32.204Z,33.63
2019-05-18T11:58:04.476Z,31.17
2019-05-18T12:00:37.577Z,26.33
2019-05-18T12:03:10.489Z,28.25
2019-05-18T12:05:41.902Z,22.00
2019-05-18T12:08:13.235Z,17.32
2019-05-18T12:10:45.175Z,10.85
2019-05-18T12:13:16.813Z,12.18
2019-05-18T12:15:48.189Z,14.63
2019-05-18T12:18:19.677Z,14.15
2019-05-18T12:20:51.097Z,12.93
2019-05-18T12:23:22.548Z,13.10
2019-05-18T12:25:53.970Z,15.78
2019-05-18T12:28:25.452Z,12.50
2019-05-18T12:30:56.882Z,15.15
2019-05-18T12:33:28.261Z,13.32
2019-05-18T12:35:59.676Z,14.07
2019-05-18T12:38:31.240Z,13.55
2019-05-18T12:41:02.981Z,14.35
2019-05-18T12:43:38.462Z,19.95
2019-05-18T12:46:10.026Z,18.90
2019-05-18T12:48:42.679Z,22.48
2019-05-18T12:51:14.284Z,16.65
2019-05-18T12:53:45.727Z,16.90
2019-05-18T12:56:17.256Z,17.05
2019-05-18T12:58:48.686Z,16.45
2019-05-18T13:01:19.977Z,15.00
2019-05-18T13:03:51.744Z,13.72
2019-05-18T13:06:23.455Z,14.95
2019-05-18T13:08:55.242Z,12.75
2019-05-18T13:11:26.734Z,13.70
2019-05-18T13:13:58.152Z,14.28
2019-05-18T13:16:29.567Z,10.90
2019-05-18T13:19:01.146Z,9.75
2019-05-18T13:21:32.500Z,11.35
2019-05-18T13:24:03.926Z,13.75
2019-05-18T13:26:35.653Z,13.30
2019-05-18T13:29:07.632Z,12.25
2019-05-18T13:31:39.064Z,15.78
2019-05-18T13:34:11.197Z,18.27
2019-05-18T13:36:42.587Z,16.95
2019-05-18T13:39:14.191Z,21.00
2019-05-18T13:41:45.723Z,27.80
2019-05-18T13:44:17.289Z,32.03
2019-05-18T13:46:48.859Z,30.72
2019-05-18T13:49:20.246Z,32.28
2019-05-18T13:51:51.668Z,32.95
2019-05-18T13:54:23.059Z,32.78
2019-05-18T13:56:56.142Z,32.73
2019-05-18T13:59:27.584Z,35.52
2019-05-18T14:01:59.015Z,31.23
2019-05-18T14:04:30.468Z,36.63
2019-05-18T14:07:01.961Z,143.57
2019-05-18T14:09:33.385Z,226.67
2019-05-18T14:12:05.465Z,230.77
2019-05-18T14:14:38.467Z,163.95
2019-05-18T14:17:09.954Z,38.17
2019-05-18T14:19:41.310Z,37.10
2019-05-18T14:22:12.699Z,63.75
2019-05-18T14:24:45.095Z,66.02
2019-05-18T14:27:16.927Z,239.70
2019-05-18T14:29:48.212Z,92.20
2019-05-18T14:32:19.946Z,54.05
2019-05-18T14:34:51.323Z,57.15
2019-05-18T14:37:23.255Z,44.05
2019-05-18T14:39:54.576Z,37.50
2019-05-18T14:42:26.452Z,33.08
2019-05-18T14:44:57.932Z,30.57
2019-05-18T14:47:32.647Z,28.87
2019-05-18T14:50:04.945Z,33.65
2019-05-18T14:52:36.431Z,30.15
2019-05-18T14:55:08.513Z,31.20
2019-05-18T14:57:40.001Z,32.48
2019-05-18T15:00:11.615Z,33.05
2019-05-18T15:02:42.996Z,30.12
2019-05-18T15:05:15.091Z,26.17
2019-05-18T15:07:46.512Z,25.37
2019-05-18T15:10:18.511Z,29.10
2019-05-18T15:12:49.928Z,32.00
2019-05-18T15:15:21.657Z,28.77
2019-05-18T15:17:53.102Z,28.50
2019-05-18T15:20:24.462Z,26.82
2019-05-18T15:22:56.573Z,20.25
2019-05-18T15:25:28.023Z,21.80
2019-05-18T15:27:59.358Z,20.12
2019-05-18T15:30:30.893Z,21.40
2019-05-18T15:33:02.347Z,19.15
2019-05-18T15:35:34.148Z,16.80
2019-05-18T15:38:05.924Z,27.15
2019-05-18T15:40:38.858Z,59.67
2019-05-18T15:43:10.282Z,19.42
2019-05-18T15:45:41.846Z,17.65
2019-05-18T15:48:13.359Z,48.40
2019-05-18T15:50:45.473Z,41.65
2019-05-18T15:53:16.855Z,19.30
2019-05-18T15:56:04.506Z,108.72
2019-05-18T15:58:23.685Z,23.87
2019-05-18T16:00:55.908Z,67.35
2019-05-18T16:03:28.858Z,42.30
2019-05-18T16:06:00.263Z,41.68
2019-05-18T16:08:31.812Z,103.07
2019-05-18T16:11:03.234Z,56.40
2019-05-18T16:13:34.898Z,53.90
2019-05-18T16:16:06.632Z,41.08
2019-05-18T16:18:38.060Z,45.98
2019-05-18T16:21:09.430Z,27.77
2019-05-18T16:23:40.910Z,25.60
2019-05-18T16:26:21.090Z,24.85
2019-05-18T16:28:45.341Z,27.77
2019-05-18T16:31:17.054Z,46.95
2019-05-18T16:33:51.186Z,47.70
2019-05-18T16:36:22.693Z,126.22
2019-05-18T16:38:55.201Z,175.60
2019-05-18T16:41:26.875Z,41.02
2019-05-18T16:43:58.319Z,225.75
2019-05-18T16:46:29.694Z,155.65
2019-05-18T16:49:01.322Z,205.00
2019-05-18T16:51:32.718Z,188.72
2019-05-18T16:54:05.737Z,138.88
2019-05-18T16:56:38.776Z,77.42
2019-05-18T16:59:10.349Z,103.32
2019-05-18T17:01:42.371Z,142.62
2019-05-18T17:04:13.853Z,364.98
2019-05-18T17:06:45.696Z,211.77
2019-05-18T17:09:17.241Z,174.42
2019-05-18T17:11:48.771Z,160.28
2019-05-18T17:14:20.223Z,228.07
2019-05-18T17:16:53.123Z,132.50
2019-05-18T17:19:24.571Z,170.10
2019-05-18T17:21:56.095Z,173.45
2019-05-18T17:24:27.511Z,174.05
2019-05-18T17:26:59.195Z,143.28
2019-05-18T17:29:32.839Z,113.40
2019-05-18T17:32:06.093Z,80.70
2019-05-18T17:34:37.712Z,70.97
2019-05-18T17:37:09.267Z,110.70
2019-05-18T17:39:40.584Z,43.30
2019-05-18T17:42:12.044Z,46.77
2019-05-18T17:44:45.061Z,72.45
2019-05-18T17:47:17.983Z,29.15
2019-05-18T17:49:49.475Z,16.10
2019-05-18T17:52:20.998Z,15.70
2019-05-18T17:54:52.372Z,23.93
2019-05-18T17:57:24.732Z,14.30
2019-05-18T17:59:56.314Z,75.00
2019-05-18T18:02:27.711Z,21.07
2019-05-18T18:04:59.215Z,36.50
2019-05-18T18:07:30.686Z,54.90
2019-05-18T18:10:02.106Z,58.63
2019-05-18T18:12:34.662Z,38.93
2019-05-18T18:15:06.981Z,72.97
2019-05-18T18:17:38.521Z,21.80
2019-05-18T18:20:10.782Z,22.03
2019-05-18T18:22:42.273Z,33.50
2019-05-18T18:25:13.960Z,26.83
2019-05-18T18:27:45.540Z,34.50
2019-05-18T18:30:17.848Z,71.87
2019-05-18T18:32:49.269Z,52.53
2019-05-18T18:35:20.697Z,91.47
2019-05-18T18:37:52.221Z,94.60
2019-05-18T18:40:26.853Z,78.93
2019-05-18T18:43:01.753Z,77.37
2019-05-18T18:45:33.212Z,79.03
2019-05-18T18:48:06.429Z,76.20
2019-05-18T18:50:37.804Z,63.67
2019-05-18T18:53:14.910Z,51.57
2019-05-18T18:55:46.282Z,35.63
2019-05-18T18:58:21.446Z,42.40
2019-05-18T19:00:56.489Z,46.03
2019-05-18T19:03:28.064Z,65.90
2019-05-18T19:06:07.385Z,52.80
2019-05-18T19:08:38.760Z,74.43
2019-05-18T19:11:12.913Z,42.70
2019-05-18T19:13:45.838Z,98.50
2019-05-18T19:16:17.560Z,114.00
2019-05-18T19:18:53.415Z,107.07
2019-05-18T19:21:25.324Z,75.70
2019-05-18T19:24:00.506Z,50.67
2019-05-18T19:26:32.679Z,71.87
2019-05-18T19:29:06.515Z,73.80
2019-05-18T19:31:49.712Z,67.57
2019-05-18T19:34:30.952Z,99.33
2019-05-18T19:36:59.418Z,76.00
2019-05-18T19:39:35.346Z,95.10
2019-05-18T19:42:07.329Z,90.60
2019-05-18T19:44:43.369Z,134.57
2019-05-18T19:47:18.466Z,94.37
2019-05-18T19:49:52.745Z,109.47
2019-05-18T19:52:29.207Z,112.00
2019-05-18T19:55:00.666Z,121.80
2019-05-18T19:57:43.187Z,51.73
2019-05-18T20:00:21.731Z,45.77
2019-05-18T20:02:57.637Z,40.50
2019-05-18T20:05:31.768Z,118.60
2019-05-18T20:08:06.925Z,51.83
2019-05-18T20:10:40.080Z,67.50
2019-05-18T20:13:17.038Z,44.23
2019-05-18T20:15:52.086Z,55.87
2019-05-18T20:18:24.063Z,36.63
2019-05-18T20:20:55.603Z,36.40
2019-05-18T20:27:32.843Z,52.67
2019-05-18T20:30:09.440Z,37.33
2019-05-18T20:32:50.399Z,53.23
2019-05-18T20:35:29.111Z,100.77
2019-05-18T20:38:03.070Z,128.37
2019-05-18T20:43:28.261Z,166.80
2019-05-18T20:46:27.308Z,196.70
2019-05-18T20:54:20.326Z,149.97
2019-05-18T21:00:51.759Z,105.83
2019-05-18T21:04:02.657Z,111.37
2019-05-18T21:07:46.416Z,116.07
2019-05-18T21:18:10.966Z,92.57
2019-05-18T21:20:51.087Z,91.63
2019-05-18T21:23:58.275Z,90.63
2019-05-18T21:26:29.864Z,79.47
2019-05-18T21:29:03.514Z,76.30
2019-05-18T21:31:36.237Z,89.60
2019-05-18T21:34:11.555Z,95.83
2019-05-18T21:36:47.866Z,82.80
2019-05-18T21:39:41.045Z,73.50
2019-05-18T21:42:26.460Z,74.93
2019-05-18T21:45:29.083Z,66.10
2019-05-18T21:48:25.470Z,97.67
2019-05-18T21:51:07.109Z,86.43
2019-05-18T21:53:52.173Z,88.23
2019-05-18T21:56:40.104Z,91.13
2019-05-18T21:59:13.528Z,81.53
2019-05-18T22:01:52.525Z,75.60
2019-05-18T22:04:25.122Z,80.70
2019-05-18T22:06:56.620Z,93.27
2019-05-18T22:09:28.347Z,92.20
2019-05-18T22:12:00.282Z,74.97
2019-05-18T22:14:33.331Z,77.90
2019-05-18T22:17:06.898Z,79.47
2019-05-18T22:19:39.954Z,75.23
2019-05-18T22:22:12.994Z,69.17
2019-05-18T22:24:45.547Z,78.33
2019-05-18T22:27:18.736Z,68.40
2019-05-18T22:29:50.521Z,69.53
2019-05-18T22:32:22.718Z,67.73
2019-05-18T22:34:55.054Z,65.53
2019-05-18T22:37:28.137Z,71.17
2019-05-18T22:40:01.190Z,67.07
2019-05-18T22:42:34.390Z,64.70
2019-05-18T22:45:08.790Z,68.67
2019-05-18T22:47:41.050Z,71.80
2019-05-18T22:50:13.276Z,60.57
2019-05-18T22:52:46.438Z,67.63
2019-05-18T22:55:18.932Z,70.43
2019-05-18T22:57:50.314Z,75.13
2019-05-18T23:00:22.029Z,75.33
2019-05-18T23:02:55.172Z,61.10
2019-05-18T23:05:26.611Z,63.30
2019-05-18T23:07:59.506Z,67.57
2019-05-18T23:10:31.818Z,55.43
2019-05-18T23:13:03.987Z,56.13
2019-05-18T23:15:36.775Z,53.87
2019-05-18T23:18:08.569Z,237.10
2019-05-18T23:20:41.638Z,104.13
2019-05-18T23:23:13.176Z,125.07
2019-05-18T23:25:45.899Z,76.37
2019-05-18T23:28:18.019Z,66.33
2019-05-18T23:30:49.645Z,64.93
2019-05-18T23:33:20.992Z,66.20
2019-05-18T23:35:53.169Z,62.43
2019-05-18T23:38:24.680Z,56.33
2019-05-18T23:40:56.578Z,61.13
2019-05-18T23:43:28.194Z,60.60
2019-05-18T23:45:59.684Z,57.13
2019-05-18T23:48:32.013Z,61.17
2019-05-18T23:51:03.375Z,66.27
2019-05-18T23:53:36.193Z,53.87
2019-05-18T23:56:08.288Z,58.90
2019-05-18T23:58:40.727Z,86.03
